createdAt,value
2023-03-26T00:01:18.252Z,96.00
2023-03-26T00:03:45.242Z,96.40
2023-03-26T00:06:13.434Z,96.50
2023-03-26T00:08:41.891Z,96.70
2023-03-26T00:11:11.733Z,95.70
2023-03-26T00:13:39.080Z,95.90
2023-03-26T00:16:06.355Z,95.70
2023-03-26T00:18:33.203Z,96.80
2023-03-26T00:21:02.835Z,96.30
2023-03-26T00:23:32.098Z,96.80
2023-03-26T00:25:58.907Z,96.70
2023-03-26T00:28:27.387Z,95.80
2023-03-26T00:30:59.376Z,95.90
2023-03-26T00:33:26.482Z,95.70
2023-03-26T00:35:54.503Z,95.50
2023-03-26T00:38:21.736Z,95.60
2023-03-26T00:40:48.555Z,95.30
2023-03-26T00:43:15.289Z,95.20
2023-03-26T00:45:43.459Z,95.70
2023-03-26T00:48:10.233Z,95.90
2023-03-26T00:50:37.311Z,95.20
2023-03-26T00:53:04.102Z,96.00
2023-03-26T00:55:30.886Z,95.80
2023-03-26T00:57:57.752Z,96.10
2023-03-26T01:00:29.024Z,95.50
2023-03-26T01:02:57.318Z,95.70
2023-03-26T01:05:42.590Z,95.00
2023-03-26T01:08:26.687Z,95.30
2023-03-26T01:10:55.127Z,95.00
2023-03-26T01:13:24.000Z,94.30
2023-03-26T01:15:51.419Z,94.20
2023-03-26T01:18:21.939Z,93.90
2023-03-26T01:20:50.764Z,94.30
2023-03-26T01:23:22.775Z,94.40
2023-03-26T01:25:56.956Z,94.30
2023-03-26T01:28:27.480Z,94.30
2023-03-26T01:31:00.510Z,94.10
2023-03-26T01:33:34.213Z,94.10
2023-03-26T01:36:05.180Z,94.10
2023-03-26T01:38:38.843Z,93.90
2023-03-26T01:41:10.592Z,94.10
2023-03-26T01:43:43.463Z,93.90
2023-03-26T01:46:13.747Z,94.00
2023-03-26T01:48:42.603Z,93.90
2023-03-26T01:51:11.481Z,93.90
2023-03-26T01:53:42.836Z,94.30
2023-03-26T01:56:15.012Z,94.40
2023-03-26T01:58:56.924Z,94.20
2023-03-26T02:01:29.460Z,94.50
2023-03-26T02:04:01.836Z,94.80
2023-03-26T02:06:37.658Z,94.80
2023-03-26T02:09:07.176Z,94.50
2023-03-26T02:11:37.091Z,94.60
2023-03-26T02:14:04.825Z,94.80
2023-03-26T02:16:31.938Z,95.00
2023-03-26T02:18:58.705Z,95.00
2023-03-26T02:21:26.608Z,95.20
2023-03-26T02:23:54.703Z,95.00
2023-03-26T02:26:21.431Z,95.10
2023-03-26T02:28:49.844Z,94.90
2023-03-26T02:31:16.650Z,94.50
2023-03-26T02:33:43.609Z,94.70
2023-03-26T02:36:11.376Z,94.60
2023-03-26T02:38:38.138Z,95.20
2023-03-26T02:41:05.492Z,94.70
2023-03-26T02:43:32.249Z,94.80
2023-03-26T02:46:00.393Z,94.70
2023-03-26T02:48:27.257Z,94.80
2023-03-26T02:50:53.992Z,95.00
2023-03-26T02:53:20.903Z,95.10
2023-03-26T02:55:47.944Z,95.10
2023-03-26T02:58:14.672Z,95.10
2023-03-26T03:00:41.400Z,95.50
2023-03-26T03:03:09.724Z,95.50
2023-03-26T03:05:36.614Z,95.30
2023-03-26T03:08:03.646Z,95.10
2023-03-26T03:10:30.359Z,94.90
2023-03-26T03:12:57.098Z,94.90
2023-03-26T03:15:23.893Z,94.70
2023-03-26T03:17:50.759Z,95.30
2023-03-26T03:20:18.888Z,95.20
2023-03-26T03:22:45.605Z,95.20
2023-03-26T03:25:12.288Z,95.00
2023-03-26T03:27:38.996Z,94.20
2023-03-26T03:30:07.183Z,93.90
2023-03-26T03:32:34.000Z,94.00
2023-03-26T03:35:00.721Z,93.70
2023-03-26T03:37:28.759Z,93.70
2023-03-26T03:39:55.473Z,93.90
2023-03-26T03:42:22.196Z,94.50
2023-03-26T03:44:48.912Z,94.60
2023-03-26T03:47:15.657Z,94.30
2023-03-26T03:49:42.350Z,93.90
2023-03-26T03:52:09.076Z,93.70
2023-03-26T03:54:37.139Z,93.60
2023-03-26T03:57:04.084Z,93.30
2023-03-26T03:59:30.888Z,93.30
2023-03-26T04:01:57.606Z,93.20
2023-03-26T04:04:24.335Z,93.30
2023-03-26T04:06:51.217Z,93.60
2023-03-26T04:09:17.969Z,93.70
2023-03-26T04:11:46.039Z,94.20
2023-03-26T04:14:12.802Z,94.20
2023-03-26T04:16:39.618Z,93.70
2023-03-26T04:19:06.318Z,93.90
2023-03-26T04:21:33.016Z,94.50
2023-03-26T04:23:59.725Z,94.30
2023-03-26T04:26:26.640Z,94.70
2023-03-26T04:28:58.726Z,94.80
2023-03-26T04:31:26.972Z,94.90
2023-03-26T04:33:53.744Z,95.20
2023-03-26T04:36:25.408Z,95.20
2023-03-26T04:38:52.130Z,95.20
2023-03-26T04:41:21.379Z,95.10
2023-03-26T04:43:48.212Z,95.20
2023-03-26T04:46:16.517Z,95.10
2023-03-26T04:48:43.189Z,95.20
2023-03-26T04:51:10.312Z,95.10
2023-03-26T04:53:37.143Z,95.00
2023-03-26T04:56:11.737Z,94.70
2023-03-26T04:58:38.417Z,95.80
2023-03-26T05:01:10.271Z,95.20
2023-03-26T05:03:38.903Z,95.60
2023-03-26T05:06:06.136Z,95.20
2023-03-26T05:08:32.854Z,95.40
2023-03-26T05:10:59.609Z,95.70
2023-03-26T05:13:26.333Z,95.10
2023-03-26T05:15:53.045Z,95.20
2023-03-26T05:18:19.740Z,95.80
2023-03-26T05:20:47.796Z,96.20
2023-03-26T05:23:14.496Z,96.20
2023-03-26T05:25:41.396Z,95.90
2023-03-26T05:28:09.331Z,95.50
2023-03-26T05:30:36.512Z,95.70
2023-03-26T05:33:03.299Z,96.20
2023-03-26T05:35:30.224Z,96.40
2023-03-26T05:37:58.317Z,96.50
2023-03-26T05:40:25.062Z,95.60
2023-03-26T05:42:51.831Z,96.20
2023-03-26T05:45:18.674Z,96.90
2023-03-26T05:47:45.410Z,97.20
2023-03-26T05:50:12.206Z,97.10
2023-03-26T05:52:38.944Z,97.00
2023-03-26T05:55:07.826Z,97.40
2023-03-26T05:57:34.803Z,96.10
2023-03-26T06:00:01.617Z,96.20
2023-03-26T06:02:28.324Z,96.60
2023-03-26T06:04:55.133Z,96.60
2023-03-26T06:07:21.929Z,97.30
2023-03-26T06:09:48.989Z,98.60
2023-03-26T06:12:17.050Z,96.80
2023-03-26T06:14:43.779Z,97.10
2023-03-26T06:17:10.607Z,97.20
2023-03-26T06:19:37.548Z,97.70
2023-03-26T06:22:04.690Z,97.50
2023-03-26T06:24:31.718Z,97.20
2023-03-26T06:26:58.460Z,96.80
2023-03-26T06:29:26.730Z,97.50
2023-03-26T06:31:53.446Z,97.70
2023-03-26T06:34:20.179Z,98.50
2023-03-26T06:36:46.903Z,98.70
2023-03-26T06:39:13.604Z,99.00
2023-03-26T06:41:40.323Z,98.80
2023-03-26T06:44:07.031Z,98.90
2023-03-26T06:46:35.089Z,99.30
2023-03-26T06:49:01.807Z,98.50
2023-03-26T06:51:28.662Z,98.10
2023-03-26T06:53:55.338Z,98.70
2023-03-26T06:56:22.052Z,99.40
2023-03-26T06:58:48.893Z,99.40
2023-03-26T07:01:15.627Z,98.80
2023-03-26T07:03:43.683Z,99.00
2023-03-26T07:06:10.409Z,98.90
2023-03-26T07:08:37.113Z,98.70
2023-03-26T07:11:04.174Z,98.90
2023-03-26T07:13:30.949Z,98.00
2023-03-26T07:15:57.665Z,97.60
2023-03-26T07:18:24.550Z,97.50
2023-03-26T07:20:53.754Z,97.60
2023-03-26T07:23:21.135Z,96.40
2023-03-26T07:25:48.621Z,96.70
2023-03-26T07:28:25.073Z,97.70
2023-03-26T07:31:00.500Z,97.10
2023-03-26T07:33:34.783Z,96.90
2023-03-26T07:36:15.439Z,96.00
2023-03-26T07:38:54.356Z,95.30
2023-03-26T07:41:29.065Z,94.80
2023-03-26T07:44:09.390Z,94.60
2023-03-26T07:46:36.681Z,94.70
2023-03-26T07:49:04.284Z,94.70
2023-03-26T07:51:33.191Z,94.80
2023-03-26T07:54:00.740Z,94.80
2023-03-26T07:56:34.882Z,94.80
2023-03-26T07:59:13.783Z,95.20
2023-03-26T08:01:51.974Z,95.30
2023-03-26T08:04:36.516Z,95.30
2023-03-26T08:07:10.832Z,97.20
2023-03-26T08:09:45.888Z,97.60
2023-03-26T08:12:21.317Z,97.00
2023-03-26T08:14:54.829Z,97.00
2023-03-26T08:17:31.376Z,97.10
2023-03-26T08:20:08.590Z,97.40
2023-03-26T08:22:40.339Z,97.40
2023-03-26T08:25:25.991Z,98.20
2023-03-26T08:28:03.651Z,98.20
2023-03-26T08:30:30.690Z,98.30
2023-03-26T08:33:00.183Z,97.70
2023-03-26T08:35:28.155Z,98.30
2023-03-26T08:37:56.259Z,99.00
2023-03-26T08:40:49.139Z,98.90
2023-03-26T08:43:52.386Z,99.30
2023-03-26T08:46:51.683Z,98.80
2023-03-26T08:49:42.847Z,99.90
2023-03-26T08:52:34.919Z,98.60
2023-03-26T08:55:36.017Z,99.50
2023-03-26T08:58:37.640Z,99.70
2023-03-26T09:01:22.964Z,99.90
2023-03-26T09:04:35.250Z,99.00
2023-03-26T09:07:25.867Z,98.40
2023-03-26T09:10:23.329Z,97.90
2023-03-26T09:13:19.682Z,97.60
2023-03-26T09:16:19.299Z,97.50
2023-03-26T09:19:11.802Z,97.40
2023-03-26T09:22:11.004Z,97.30
2023-03-26T09:25:01.552Z,98.10
2023-03-26T09:27:37.480Z,99.10
2023-03-26T09:30:40.130Z,98.00
2023-03-26T09:33:28.028Z,97.80
2023-03-26T09:36:14.847Z,99.50
2023-03-26T09:38:45.914Z,99.90
2023-03-26T09:41:17.159Z,99.90
2023-03-26T09:44:32.772Z,99.90
2023-03-26T09:47:17.405Z,99.00
2023-03-26T09:49:53.470Z,98.60
2023-03-26T09:52:47.397Z,99.50
2023-03-26T09:55:29.731Z,99.90
2023-03-26T09:58:16.938Z,99.90
2023-03-26T10:00:51.127Z,99.90
2023-03-26T10:03:42.573Z,99.90
2023-03-26T10:06:22.342Z,99.90
2023-03-26T10:09:02.720Z,99.90
2023-03-26T10:11:41.893Z,99.90
2023-03-26T10:14:18.711Z,99.90
2023-03-26T10:16:58.434Z,99.90
2023-03-26T10:19:52.580Z,99.90
2023-03-26T10:22:30.616Z,99.90
2023-03-26T10:25:41.734Z,99.90
2023-03-26T10:28:25.214Z,99.90
2023-03-26T10:31:08.126Z,99.90
2023-03-26T10:33:44.989Z,99.90
2023-03-26T10:36:29.166Z,99.90
2023-03-26T10:39:36.961Z,99.90
2023-03-26T10:42:21.057Z,99.90
2023-03-26T10:45:29.568Z,99.90
2023-03-26T10:48:25.885Z,99.90
2023-03-26T10:51:05.670Z,99.90
2023-03-26T10:53:36.133Z,99.90
2023-03-26T10:56:12.658Z,99.90
2023-03-26T10:58:48.440Z,99.90
2023-03-26T11:01:24.217Z,99.90
2023-03-26T11:03:51.268Z,99.90
2023-03-26T11:06:36.728Z,99.90
2023-03-26T11:09:15.176Z,99.90
2023-03-26T11:11:48.294Z,99.90
2023-03-26T11:14:31.785Z,99.90
2023-03-26T11:17:10.420Z,99.90
2023-03-26T11:19:51.471Z,99.90
2023-03-26T11:22:31.128Z,99.90
2023-03-26T11:25:25.294Z,99.90
2023-03-26T11:28:03.918Z,99.90
2023-03-26T11:30:42.098Z,99.90
2023-03-26T11:33:12.769Z,99.90
2023-03-26T11:35:43.595Z,99.90
2023-03-26T11:38:18.849Z,99.90
2023-03-26T11:40:48.974Z,99.90
2023-03-26T11:43:18.630Z,99.90
2023-03-26T11:45:48.476Z,99.90
2023-03-26T11:48:22.064Z,99.90
2023-03-26T11:50:53.227Z,99.90
2023-03-26T11:53:27.168Z,99.90
2023-03-26T11:56:02.532Z,99.90
2023-03-26T11:58:32.695Z,99.90
2023-03-26T12:01:02.718Z,99.90
2023-03-26T12:03:29.422Z,99.90
2023-03-26T12:05:59.164Z,99.90
2023-03-26T12:08:33.748Z,99.90
2023-03-26T12:11:08.014Z,99.90
2023-03-26T12:13:38.610Z,99.90
2023-03-26T12:16:10.512Z,99.90
2023-03-26T12:18:39.024Z,99.90
2023-03-26T12:21:09.144Z,99.90
2023-03-26T12:23:43.580Z,99.90
2023-03-26T12:26:18.887Z,99.90
2023-03-26T12:28:47.009Z,99.90
2023-03-26T12:31:14.275Z,99.90
2023-03-26T12:33:41.120Z,99.90
2023-03-26T12:36:20.656Z,99.90
2023-03-26T12:39:16.862Z,99.90
2023-03-26T12:44:44.853Z,99.90
2023-03-26T12:44:56.466Z,99.90
2023-03-26T12:48:01.350Z,99.90
2023-03-26T12:50:11.818Z,99.90
2023-03-26T12:52:55.286Z,99.90
2023-03-26T12:55:40.550Z,99.90
2023-03-26T12:58:20.164Z,99.90
2023-03-26T13:00:58.612Z,99.90
2023-03-26T13:03:37.921Z,99.90
2023-03-26T13:06:19.532Z,99.90
2023-03-26T13:09:05.589Z,99.90
2023-03-26T13:11:45.457Z,99.90
2023-03-26T13:14:51.343Z,99.90
2023-03-26T13:17:25.603Z,99.90
2023-03-26T13:20:00.670Z,99.90
2023-03-26T13:22:37.647Z,99.90
2023-03-26T13:25:18.406Z,99.90
2023-03-26T13:27:59.851Z,99.90
2023-03-26T13:30:33.714Z,99.90
2023-03-26T13:33:13.897Z,99.90
2023-03-26T13:35:46.483Z,99.90
2023-03-26T13:38:20.887Z,99.90
2023-03-26T13:40:58.173Z,99.90
2023-03-26T13:43:35.925Z,99.90
2023-03-26T13:46:10.366Z,99.90
2023-03-26T13:48:43.255Z,99.90
2023-03-26T13:51:15.194Z,99.90
2023-03-26T13:53:47.795Z,99.90
2023-03-26T13:56:17.423Z,99.90
2023-03-26T13:58:52.059Z,99.90
2023-03-26T14:01:22.196Z,99.90
2023-03-26T14:03:58.376Z,99.90
2023-03-26T14:06:34.970Z,99.90
2023-03-26T14:09:09.651Z,99.90
2023-03-26T14:11:49.832Z,99.90
2023-03-26T14:14:25.933Z,99.90
2023-03-26T14:16:57.800Z,99.90
2023-03-26T14:20:08.260Z,99.90
2023-03-26T14:22:41.685Z,99.90
2023-03-26T14:25:19.351Z,99.90
2023-03-26T14:28:00.639Z,99.90
2023-03-26T14:30:42.050Z,99.90
2023-03-26T14:33:27.345Z,99.90
2023-03-26T14:36:00.322Z,99.90
2023-03-26T14:39:00.629Z,99.90
2023-03-26T14:41:31.588Z,99.90
2023-03-26T14:44:48.104Z,99.90
2023-03-26T14:47:18.952Z,99.90
2023-03-26T14:50:09.597Z,99.90
2023-03-26T14:52:46.040Z,99.90
2023-03-26T14:55:18.349Z,99.90
2023-03-26T14:58:00.515Z,99.90
2023-03-26T15:01:13.093Z,99.90
2023-03-26T15:07:16.933Z,99.90
2023-03-26T15:10:22.493Z,99.90
2023-03-26T15:13:01.113Z,99.90
2023-03-26T15:15:58.121Z,99.90
2023-03-26T15:18:50.849Z,99.90
2023-03-26T15:21:44.569Z,99.90
2023-03-26T15:27:55.035Z,99.90
2023-03-26T15:31:00.139Z,99.90
2023-03-26T15:33:39.895Z,99.90
2023-03-26T15:36:27.188Z,99.90
2023-03-26T15:39:32.719Z,99.90
2023-03-26T15:42:08.772Z,99.90
2023-03-26T15:44:53.725Z,99.90
2023-03-26T15:48:02.690Z,99.90
2023-03-26T15:50:48.461Z,99.90
2023-03-26T15:53:26.712Z,99.90
2023-03-26T15:56:05.757Z,99.90
2023-03-26T15:58:43.075Z,99.90
2023-03-26T16:01:21.422Z,99.90
2023-03-26T16:03:57.793Z,99.90
2023-03-26T16:06:46.720Z,99.90
2023-03-26T16:09:45.144Z,99.90
2023-03-26T16:12:34.017Z,99.90
2023-03-26T16:15:23.435Z,99.90
2023-03-26T16:18:18.588Z,99.90
2023-03-26T16:20:47.390Z,99.90
2023-03-26T16:23:24.810Z,99.90
2023-03-26T16:25:58.771Z,99.90
2023-03-26T16:28:34.055Z,99.90
2023-03-26T16:31:36.508Z,99.90
2023-03-26T16:34:27.656Z,99.90
2023-03-26T16:36:55.052Z,99.90
2023-03-26T16:39:23.858Z,99.90
2023-03-26T16:42:06.160Z,99.90
2023-03-26T16:44:41.619Z,99.90
2023-03-26T16:47:19.597Z,99.90
2023-03-26T16:50:09.100Z,99.90
2023-03-26T16:52:44.292Z,99.90
2023-03-26T16:55:21.485Z,99.90
2023-03-26T16:57:54.728Z,99.90
2023-03-26T17:00:46.514Z,99.90
2023-03-26T17:03:32.291Z,99.90
2023-03-26T17:06:06.671Z,99.90
2023-03-26T17:08:47.669Z,99.90
2023-03-26T17:11:26.390Z,99.90
2023-03-26T17:14:04.634Z,99.90
2023-03-26T17:16:34.227Z,99.90
2023-03-26T17:19:07.626Z,99.90
2023-03-26T17:21:46.023Z,99.90
2023-03-26T17:24:25.225Z,99.90
2023-03-26T17:27:00.279Z,99.90
2023-03-26T17:29:51.173Z,99.90
2023-03-26T17:32:18.274Z,99.90
2023-03-26T17:35:08.002Z,99.90
2023-03-26T17:37:40.507Z,99.90
2023-03-26T17:40:31.045Z,99.90
2023-03-26T17:43:03.862Z,99.90
2023-03-26T17:45:34.385Z,99.90
2023-03-26T17:48:08.663Z,99.90
2023-03-26T17:50:41.518Z,99.90
2023-03-26T17:53:18.476Z,99.90
2023-03-26T17:55:46.248Z,99.90
2023-03-26T17:58:23.507Z,99.90
2023-03-26T18:00:55.306Z,99.90
2023-03-26T18:03:28.915Z,99.70
2023-03-26T18:06:05.111Z,99.60
2023-03-26T18:08:56.748Z,99.60
2023-03-26T18:11:47.174Z,99.90
2023-03-26T18:14:58.589Z,99.80
2023-03-26T18:17:25.637Z,99.90
2023-03-26T18:19:54.542Z,99.90
2023-03-26T18:22:24.981Z,99.90
2023-03-26T18:24:56.523Z,99.90
2023-03-26T18:27:23.671Z,99.90
2023-03-26T18:30:01.688Z,99.90
2023-03-26T18:32:31.918Z,99.90
2023-03-26T18:35:00.247Z,99.90
2023-03-26T18:37:28.750Z,99.90
2023-03-26T18:40:01.215Z,99.90
2023-03-26T18:42:30.123Z,99.90
2023-03-26T18:44:59.911Z,99.90
2023-03-26T18:47:30.242Z,99.90
2023-03-26T18:49:58.144Z,99.90
2023-03-26T18:52:28.150Z,99.90
2023-03-26T18:54:56.672Z,99.90
2023-03-26T18:57:26.963Z,99.90
2023-03-26T18:59:55.936Z,99.90
2023-03-26T19:02:24.806Z,99.90
2023-03-26T19:04:51.834Z,99.90
2023-03-26T19:07:21.743Z,99.90
2023-03-26T19:09:49.378Z,99.90
2023-03-26T19:12:18.137Z,99.90
2023-03-26T19:14:55.024Z,99.90
2023-03-26T19:17:23.263Z,99.90
2023-03-26T19:19:50.661Z,99.90
2023-03-26T19:22:19.220Z,99.90
2023-03-26T19:24:46.551Z,99.90
2023-03-26T19:27:13.500Z,99.90
2023-03-26T19:29:43.106Z,99.90
2023-03-26T19:32:18.238Z,99.90
2023-03-26T19:34:47.138Z,99.90
2023-03-26T19:37:20.096Z,99.90
2023-03-26T19:39:48.769Z,99.90
2023-03-26T19:42:19.020Z,99.90
2023-03-26T19:44:46.024Z,99.90
2023-03-26T19:47:19.044Z,99.90
2023-03-26T19:49:54.647Z,99.90
2023-03-26T19:52:23.691Z,99.90
2023-03-26T19:54:59.298Z,99.90
2023-03-26T19:57:27.005Z,99.90
2023-03-26T19:59:53.800Z,99.90
2023-03-26T20:02:22.371Z,99.90
2023-03-26T20:04:49.196Z,99.90
2023-03-26T20:07:18.081Z,99.90
2023-03-26T20:09:45.076Z,99.90
2023-03-26T20:12:12.624Z,99.90
2023-03-26T20:14:39.451Z,99.90
2023-03-26T20:17:12.672Z,99.90
2023-03-26T20:19:40.970Z,99.90
2023-03-26T20:22:12.452Z,99.90
2023-03-26T20:24:39.195Z,99.90
2023-03-26T20:27:05.918Z,99.90
2023-03-26T20:29:32.586Z,99.90
2023-03-26T20:31:59.282Z,99.90
2023-03-26T20:34:25.999Z,99.90
2023-03-26T20:36:54.130Z,99.90
2023-03-26T20:39:21.489Z,99.90
2023-03-26T20:41:49.147Z,99.90
2023-03-26T20:44:18.240Z,99.90
2023-03-26T20:46:46.469Z,99.90
2023-03-26T20:49:13.556Z,99.90
2023-03-26T20:51:40.721Z,99.90
2023-03-26T20:54:14.426Z,99.90
2023-03-26T20:56:41.159Z,99.90
2023-03-26T20:59:11.411Z,99.90
2023-03-26T21:01:38.726Z,99.90
2023-03-26T21:04:05.801Z,99.90
2023-03-26T21:06:32.530Z,99.90
2023-03-26T21:08:59.844Z,99.90
2023-03-26T21:11:38.877Z,99.90
2023-03-26T21:14:14.040Z,99.90
2023-03-26T21:16:41.423Z,99.90
2023-03-26T21:19:09.510Z,99.90
2023-03-26T21:21:46.102Z,99.90
2023-03-26T21:24:21.981Z,99.90
2023-03-26T21:26:54.519Z,99.90
2023-03-26T21:29:21.724Z,99.90
2023-03-26T21:31:49.103Z,99.90
2023-03-26T21:34:16.644Z,99.90
2023-03-26T21:36:43.878Z,99.90
2023-03-26T21:39:11.312Z,99.90
2023-03-26T21:41:44.656Z,99.90
2023-03-26T21:44:13.123Z,99.90
2023-03-26T21:46:41.931Z,99.90
2023-03-26T21:49:09.250Z,99.70
2023-03-26T21:51:36.493Z,99.60
2023-03-26T21:54:03.944Z,99.30
2023-03-26T21:56:41.317Z,99.40
2023-03-26T21:59:19.063Z,99.30
2023-03-26T22:01:50.404Z,99.10
2023-03-26T22:04:25.405Z,99.10
2023-03-26T22:06:57.508Z,99.10
2023-03-26T22:09:33.894Z,99.00
2023-03-26T22:12:03.100Z,99.00
2023-03-26T22:14:31.155Z,98.80
2023-03-26T22:16:57.863Z,98.70
2023-03-26T22:19:24.738Z,98.70
2023-03-26T22:21:51.589Z,98.60
2023-03-26T22:24:18.300Z,98.50
2023-03-26T22:26:45.054Z,98.40
2023-03-26T22:29:11.776Z,98.30
2023-03-26T22:31:40.604Z,98.20
2023-03-26T22:34:07.834Z,98.20
2023-03-26T22:36:34.815Z,98.10
2023-03-26T22:39:01.537Z,98.00
2023-03-26T22:41:28.265Z,97.90
2023-03-26T22:43:55.938Z,97.80
2023-03-26T22:46:23.138Z,97.80
2023-03-26T22:48:51.513Z,97.80
2023-03-26T22:51:18.716Z,97.70
2023-03-26T22:53:45.485Z,97.70
2023-03-26T22:56:12.338Z,97.50
2023-03-26T22:58:39.192Z,97.50
2023-03-26T23:01:08.822Z,97.50
2023-03-26T23:03:36.107Z,97.20
2023-03-26T23:06:06.745Z,97.40
2023-03-26T23:08:34.233Z,97.40
2023-03-26T23:11:01.177Z,97.30
2023-03-26T23:13:27.978Z,97.20
2023-03-26T23:15:55.899Z,97.20
2023-03-26T23:18:23.556Z,97.10
2023-03-26T23:20:50.813Z,97.10
2023-03-26T23:23:19.782Z,97.10
2023-03-26T23:25:46.530Z,97.10
2023-03-26T23:28:13.349Z,97.10
2023-03-26T23:30:40.126Z,97.10
2023-03-26T23:33:06.900Z,96.90
2023-03-26T23:35:33.627Z,97.00
2023-03-26T23:38:00.338Z,96.90
2023-03-26T23:40:28.382Z,96.90
2023-03-26T23:42:55.091Z,96.90
2023-03-26T23:45:21.906Z,96.70
2023-03-26T23:47:48.706Z,96.70
2023-03-26T23:50:15.663Z,96.50
2023-03-26T23:52:42.373Z,96.70
2023-03-26T23:55:09.524Z,96.60
2023-03-26T23:57:37.602Z,96.50
